createdAt,value
2019-05-28T00:00:42.566Z,5.80
2019-05-28T00:06:47.257Z,13.63
2019-05-28T00:12:51.967Z,12.90
2019-05-28T00:18:56.534Z,10.40
2019-05-28T00:25:01.096Z,10.70
2019-05-28T00:31:05.921Z,6.67
2019-05-28T00:37:10.551Z,9.27
2019-05-28T00:43:15.201Z,12.10
2019-05-28T00:49:19.838Z,10.73
2019-05-28T00:55:24.744Z,11.23
2019-05-28T01:01:29.316Z,15.13
2019-05-28T01:07:33.874Z,9.33
2019-05-28T01:13:38.488Z,10.90
2019-05-28T01:19:43.051Z,10.07
2019-05-28T01:25:47.625Z,9.33
2019-05-28T01:31:52.280Z,12.00
2019-05-28T01:37:56.842Z,13.57
2019-05-28T01:44:01.415Z,11.83
2019-05-28T01:50:07.882Z,10.13
2019-05-28T01:56:12.461Z,15.40
2019-05-28T02:02:17.165Z,14.20
2019-05-28T02:08:21.724Z,11.60
2019-05-28T02:14:26.285Z,15.60
2019-05-28T02:20:30.928Z,11.23
2019-05-28T02:26:35.485Z,12.83
2019-05-28T02:32:40.121Z,15.80
2019-05-28T02:38:44.691Z,13.07
2019-05-28T02:44:49.252Z,17.20
2019-05-28T02:51:02.517Z,10.03
2019-05-28T02:57:07.951Z,14.40
2019-05-28T03:03:14.997Z,9.47
2019-05-28T03:09:21.477Z,8.00
2019-05-28T03:15:26.137Z,11.83
2019-05-28T03:21:32.636Z,11.60
2019-05-28T03:27:37.351Z,8.60
2019-05-28T03:33:41.981Z,7.70
2019-05-28T03:39:49.319Z,9.07
2019-05-28T03:45:53.886Z,8.40
2019-05-28T03:51:58.464Z,9.43
2019-05-28T03:58:03.092Z,9.60
2019-05-28T04:04:07.742Z,7.50
2019-05-28T04:10:12.426Z,7.70
2019-05-28T04:16:16.992Z,10.73
2019-05-28T04:22:21.645Z,25.80
2019-05-28T04:28:26.206Z,19.70
2019-05-28T04:34:30.819Z,20.13
2019-05-28T04:40:35.466Z,14.90
2019-05-28T04:46:40.047Z,26.43
2019-05-28T04:52:44.609Z,14.70
2019-05-28T04:58:49.164Z,8.83
2019-05-28T05:04:53.955Z,8.90
2019-05-28T05:10:58.569Z,12.43
2019-05-28T05:17:03.138Z,9.70
2019-05-28T05:23:07.783Z,12.93
2019-05-28T05:29:12.411Z,7.00
2019-05-28T05:35:17.435Z,9.30
2019-05-28T05:41:22.066Z,9.03
2019-05-28T05:47:26.759Z,8.90
2019-05-28T05:53:31.330Z,6.07
2019-05-28T05:59:35.893Z,10.80
2019-05-28T06:05:40.447Z,7.60
2019-05-28T06:11:45.020Z,7.13
2019-05-28T06:17:49.600Z,9.00
2019-05-28T06:23:55.387Z,6.60
2019-05-28T06:29:59.970Z,8.40
2019-05-28T06:36:04.758Z,8.10
2019-05-28T06:42:09.382Z,5.50
2019-05-28T06:48:13.942Z,9.33
2019-05-28T06:54:18.562Z,6.60
2019-05-28T07:00:23.664Z,5.67
2019-05-28T07:06:28.226Z,8.23
2019-05-28T07:12:33.371Z,8.63
2019-05-28T07:18:37.963Z,8.87
2019-05-28T07:24:42.529Z,10.77
2019-05-28T07:30:47.087Z,8.70
2019-05-28T07:36:51.983Z,5.37
2019-05-28T07:42:56.623Z,4.53
2019-05-28T07:49:01.189Z,9.17
2019-05-28T07:55:06.289Z,10.10
2019-05-28T08:01:10.869Z,11.93
2019-05-28T08:07:15.431Z,8.70
2019-05-28T08:13:20.221Z,6.90
2019-05-28T08:25:51.349Z,6.30
2019-05-28T08:31:55.918Z,6.93
2019-05-28T08:38:01.274Z,8.70
2019-05-28T08:44:06.102Z,9.70
2019-05-28T08:50:11.381Z,7.83
2019-05-28T08:56:16.012Z,11.13
2019-05-28T09:02:27.686Z,14.90
2019-05-28T09:08:38.368Z,7.03
2019-05-28T09:14:54.412Z,9.00
2019-05-28T09:20:39.607Z,11.33
2019-05-28T09:26:44.184Z,7.50
2019-05-28T09:32:49.109Z,14.13
2019-05-28T09:38:53.918Z,13.50
2019-05-28T09:44:58.492Z,13.50
2019-05-28T09:51:03.056Z,6.50
2019-05-28T09:57:07.689Z,12.87
2019-05-28T10:03:12.431Z,9.33
2019-05-28T10:09:16.965Z,9.33
2019-05-28T10:15:21.986Z,9.80
2019-05-28T10:21:26.545Z,10.10
2019-05-28T10:27:31.187Z,11.47
2019-05-28T10:33:35.749Z,10.47
2019-05-28T10:39:40.368Z,4.80
2019-05-28T10:45:45.422Z,7.33
2019-05-28T10:51:50.433Z,15.50
2019-05-28T10:57:56.298Z,9.67
2019-05-28T11:04:00.862Z,9.70
2019-05-28T11:10:22.546Z,12.20
2019-05-28T11:16:14.167Z,6.27
2019-05-28T11:22:18.737Z,7.50
2019-05-28T11:28:23.470Z,8.50
2019-05-28T11:34:28.039Z,9.23
2019-05-28T11:40:32.812Z,4.80
2019-05-28T11:46:37.382Z,7.83
2019-05-28T11:52:41.965Z,6.60
2019-05-28T11:58:46.595Z,7.50
2019-05-28T12:04:51.152Z,10.77
2019-05-28T12:10:55.723Z,6.67
2019-05-28T12:17:00.280Z,11.30
2019-05-28T12:23:10.979Z,8.50
2019-05-28T12:29:11.346Z,11.87
2019-05-28T12:35:28.180Z,11.00
2019-05-28T12:41:23.320Z,10.30
2019-05-28T12:47:27.954Z,8.83
2019-05-28T12:53:49.325Z,9.80
2019-05-28T12:59:38.802Z,9.80
2019-05-28T13:05:43.368Z,14.73
2019-05-28T13:11:47.944Z,21.43
2019-05-28T13:17:52.874Z,14.43
2019-05-28T13:23:57.507Z,16.80
2019-05-28T13:30:02.475Z,7.13
2019-05-28T13:36:08.186Z,8.97
2019-05-28T13:42:12.747Z,12.10
2019-05-28T13:48:17.325Z,9.57
2019-05-28T13:54:21.883Z,7.97
2019-05-28T14:00:27.345Z,5.70
2019-05-28T14:06:32.013Z,10.13
2019-05-28T14:12:36.744Z,5.40
2019-05-28T14:18:41.304Z,5.77
2019-05-28T14:24:45.879Z,7.20
2019-05-28T14:31:00.062Z,4.63
2019-05-28T14:36:56.725Z,8.53
2019-05-28T14:43:01.291Z,9.27
2019-05-28T14:49:07.990Z,10.17
2019-05-28T14:55:13.260Z,6.37
2019-05-28T15:01:17.932Z,7.73
2019-05-28T15:07:23.136Z,6.60
2019-05-28T15:13:28.128Z,6.43
2019-05-28T15:19:32.827Z,5.23
2019-05-28T15:25:37.377Z,6.30
2019-05-28T15:31:41.959Z,5.37
2019-05-28T15:37:46.578Z,9.53
2019-05-28T15:43:51.131Z,2.97
2019-05-28T15:49:55.751Z,6.17
2019-05-28T15:56:00.306Z,13.60
2019-05-28T16:02:05.411Z,15.23
2019-05-28T16:08:09.967Z,5.33
2019-05-28T16:14:14.565Z,4.10
2019-05-28T16:20:21.130Z,3.13
2019-05-28T16:26:25.694Z,2.77
2019-05-28T16:32:30.251Z,4.40
2019-05-28T16:38:34.820Z,8.03
2019-05-28T16:44:39.368Z,3.80
2019-05-28T16:50:43.982Z,8.03
2019-05-28T16:56:48.541Z,3.00
2019-05-28T17:02:53.158Z,4.00
2019-05-28T17:08:57.714Z,3.57
2019-05-28T17:15:02.797Z,2.77
2019-05-28T17:21:07.522Z,2.60
2019-05-28T17:27:12.109Z,3.33
2019-05-28T17:33:16.655Z,4.20
2019-05-28T17:39:21.327Z,3.20
2019-05-28T17:45:25.947Z,2.47
2019-05-28T17:51:30.502Z,2.10
2019-05-28T17:57:35.394Z,2.43
2019-05-28T18:03:40.059Z,3.43
2019-05-28T18:09:44.601Z,2.43
2019-05-28T18:15:49.315Z,2.90
2019-05-28T18:21:53.859Z,3.10
2019-05-28T18:27:58.423Z,6.17
2019-05-28T18:34:03.079Z,2.77
2019-05-28T18:40:12.293Z,3.27
2019-05-28T18:46:16.902Z,2.90
2019-05-28T18:52:21.494Z,4.00
2019-05-28T18:58:26.125Z,5.13
2019-05-28T19:04:30.782Z,5.27
2019-05-28T19:10:35.351Z,3.50
2019-05-28T19:16:39.905Z,4.30
2019-05-28T19:22:44.478Z,3.50
2019-05-28T19:28:49.048Z,3.70
2019-05-28T19:34:54.025Z,7.00
2019-05-28T19:40:58.602Z,10.13
2019-05-28T19:47:03.164Z,6.30
2019-05-28T19:53:07.776Z,4.07
2019-05-28T19:59:12.336Z,10.53
2019-05-28T20:05:17.126Z,3.97
2019-05-28T20:11:21.708Z,6.23
2019-05-28T20:17:26.342Z,6.10
2019-05-28T20:23:30.928Z,4.00
2019-05-28T20:29:35.496Z,7.40
2019-05-28T20:35:40.165Z,4.30
2019-05-28T20:41:44.730Z,4.60
2019-05-28T20:47:49.297Z,11.17
2019-05-28T20:53:53.852Z,5.70
2019-05-28T20:59:58.408Z,10.60
2019-05-28T21:06:02.963Z,5.30
2019-05-28T21:12:07.535Z,6.63
2019-05-28T21:18:12.084Z,5.37
2019-05-28T21:24:16.639Z,10.30
2019-05-28T21:30:21.635Z,7.20
2019-05-28T21:36:26.183Z,8.10
2019-05-28T21:42:30.879Z,10.10
2019-05-28T21:48:35.431Z,8.60
2019-05-28T21:54:40.006Z,8.83
2019-05-28T22:00:55.907Z,9.80
2019-05-28T22:07:01.506Z,10.60
2019-05-28T22:13:18.376Z,6.53
2019-05-28T22:19:12.760Z,9.00
2019-05-28T22:25:17.379Z,3.30
2019-05-28T22:31:21.937Z,5.47
2019-05-28T22:37:26.491Z,2.40
2019-05-28T22:43:32.013Z,3.10
2019-05-28T22:49:36.783Z,2.70
2019-05-28T22:55:41.413Z,4.03
2019-05-28T23:01:45.967Z,8.23
2019-05-28T23:07:50.526Z,3.30
2019-05-28T23:13:55.081Z,3.17
2019-05-28T23:20:00.644Z,3.00
2019-05-28T23:26:05.681Z,5.80
2019-05-28T23:32:10.442Z,2.70
2019-05-28T23:38:15.073Z,6.80
2019-05-28T23:44:19.632Z,1.83
2019-05-28T23:50:24.329Z,2.73
2019-05-28T23:56:28.891Z,2.30
